Time;durP1;ratioP1;P1;durP2;ratioP2;P2;SDS_P1;SDS_P2;PMS_P1;PMS_P2;Temp;Humidity;BMP_temperature;BMP_pressure;BME280_temperature;BME280_humidity;BME280_pressure;Samples;Min_cycle;Max_cycle;Signal;HPM_P1;HPM_P2
2021/10/13 00:00:00;;;;;;;9.23;4.32;;;;;;;10.43;96.12;102337.97;4969346;28;20031;-64
2021/10/13 00:02:25;;;;;;;11.27;4.28;;;;;;;10.44;95.90;102336.97;4975112;28;20420;-63
2021/10/13 00:04:51;;;;;;;7.88;4.25;;;;;;;10.40;95.48;102330.16;4953915;28;20126;-67
2021/10/13 00:07:17;;;;;;;9.05;4.05;;;;;;;10.46;95.63;102345.78;4974329;28;20046;-62
2021/10/13 00:09:42;;;;;;;7.57;4.07;;;;;;;10.45;95.81;102334.19;4970074;28;20031;-70
2021/10/13 00:12:08;;;;;;;13.52;4.13;;;;;;;10.46;95.85;102338.56;4971752;28;20038;-66
2021/10/13 00:14:34;;;;;;;9.07;4.10;;;;;;;10.46;95.54;102340.41;4959438;28;20577;-65
2021/10/13 00:17:03;;;;;;;6.50;4.35;;;;;;;10.53;95.88;102342.41;4972920;28;20045;-65
2021/10/13 00:19:29;;;;;;;10.30;4.40;;;;;;;10.56;95.74;102347.50;4956114;28;20031;-65
2021/10/13 00:21:55;;;;;;;8.20;4.03;;;;;;;10.55;95.76;102350.31;4973884;28;20034;-64
2021/10/13 00:24:21;;;;;;;7.45;3.58;;;;;;;10.55;95.91;102353.84;4972580;28;20125;-67
2021/10/13 00:26:46;;;;;;;7.13;4.20;;;;;;;10.55;95.85;102353.00;4973722;28;20034;-65
2021/10/13 00:29:12;;;;;;;7.68;4.07;;;;;;;10.52;95.73;102348.75;4971811;28;20859;-66
2021/10/13 00:31:38;;;;;;;12.32;4.45;;;;;;;10.56;95.75;102354.72;4969934;28;21276;-64
2021/10/13 00:34:03;;;;;;;9.30;4.53;;;;;;;10.57;96.00;102357.25;4972918;28;20447;-64
2021/10/13 00:36:29;;;;;;;8.00;3.90;;;;;;;10.62;95.79;102348.78;4969136;28;20473;-64
2021/10/13 00:38:55;;;;;;;11.20;4.30;;;;;;;10.66;95.38;102352.91;4972698;28;20388;-66
2021/10/13 00:41:20;;;;;;;7.63;4.00;;;;;;;10.65;95.32;102355.75;4973275;28;20022;-65
2021/10/13 00:43:46;;;;;;;9.80;4.25;;;;;;;10.68;95.35;102363.53;4956120;28;20069;-64
2021/10/13 00:46:11;;;;;;;8.48;4.30;;;;;;;10.66;94.98;102357.44;4972522;28;20034;-65
2021/10/13 00:48:37;;;;;;;10.23;4.13;;;;;;;10.62;95.17;102351.47;4972210;28;21171;-65
2021/10/13 00:51:03;;;;;;;11.75;4.88;;;;;;;10.59;95.27;102349.06;4971811;28;20495;-67
2021/10/13 00:53:29;;;;;;;8.73;4.38;;;;;;;10.62;95.30;102354.19;4975773;28;20491;-66
2021/10/13 00:55:56;;;;;;;7.90;3.92;;;;;;;10.64;95.18;102356.72;4975963;28;20047;-68
2021/10/13 00:58:24;;;;;;;8.43;4.28;;;;;;;10.64;95.22;102360.28;4975456;28;20259;-64
2021/10/13 01:00:55;;;;;;;6.65;3.92;;;;;;;10.61;95.17;102357.00;4976659;28;20042;-66
2021/10/13 01:03:47;;;;;;;7.85;4.05;;;;;;;10.64;95.36;102356.72;4976153;28;20105;-65
2021/10/13 01:06:16;;;;;;;6.32;3.67;;;;;;;10.65;95.23;102350.34;4947317;28;20480;-65
2021/10/13 01:08:45;;;;;;;8.25;4.30;;;;;;;10.66;95.12;102350.19;4994725;28;20039;-66
2021/10/13 01:11:35;;;;;;;7.95;3.80;;;;;;;10.68;94.81;102356.31;4979768;28;20042;-65
2021/10/13 01:14:17;;;;;;;6.63;4.05;;;;;;;10.70;94.96;102345.41;4978166;28;20542;-66
2021/10/13 01:16:46;;;;;;;9.18;4.35;;;;;;;10.77;94.76;102357.34;4986358;28;20499;-64
2021/10/13 01:19:21;;;;;;;10.35;5.00;;;;;;;10.77;94.84;102354.66;4959092;28;20480;-67
2021/10/13 01:21:49;;;;;;;10.63;5.28;;;;;;;10.73;94.60;102354.06;4980805;28;20056;-64
2021/10/13 01:24:18;;;;;;;9.88;4.80;;;;;;;10.72;94.96;102348.84;4943004;28;20041;-64
2021/10/13 01:26:50;;;;;;;9.82;4.70;;;;;;;10.74;94.81;102346.81;4974764;28;20037;-64
2021/10/13 01:29:18;;;;;;;9.40;3.97;;;;;;;10.74;94.51;102341.44;4954708;28;20188;-65
2021/10/13 01:31:49;;;;;;;13.85;4.40;;;;;;;10.72;94.69;102341.59;4976386;28;20083;-66
2021/10/13 01:34:22;;;;;;;6.43;3.67;;;;;;;10.69;94.53;102341.00;4977418;28;20384;-65
2021/10/13 01:37:10;;;;;;;6.38;3.47;;;;;;;10.73;94.85;102355.91;4974873;28;20038;-64
2021/10/13 01:39:40;;;;;;;6.88;4.18;;;;;;;10.73;94.58;102345.13;4978174;28;20594;-65
2021/10/13 01:42:06;;;;;;;10.02;4.40;;;;;;;10.72;94.59;102338.91;4972542;28;20749;-64
2021/10/13 01:44:33;;;;;;;8.68;3.70;;;;;;;10.78;94.50;102342.88;4978048;28;20045;-66
2021/10/13 01:47:00;;;;;;;9.55;4.13;;;;;;;10.81;94.24;102339.91;4970715;28;20031;-68
2021/10/13 01:49:27;;;;;;;8.93;3.70;;;;;;;10.78;94.28;102334.81;4970265;28;20065;-63
2021/10/13 01:51:52;;;;;;;7.13;3.58;;;;;;;10.81;93.99;102337.22;4973284;28;20038;-64
2021/10/13 01:54:19;;;;;;;8.32;3.90;;;;;;;10.81;93.85;102331.00;4958939;28;20042;-64
2021/10/13 01:56:49;;;;;;;8.68;4.45;;;;;;;10.82;93.88;102338.06;4960048;28;20038;-66
2021/10/13 01:59:20;;;;;;;6.15;3.70;;;;;;;10.78;93.87;102334.81;4959269;28;20104;-64
2021/10/13 02:01:47;;;;;;;5.97;3.63;;;;;;;10.76;94.09;102329.56;4972877;28;20023;-64
2021/10/13 02:04:13;;;;;;;8.88;3.85;;;;;;;10.83;93.91;102326.34;4974411;28;20046;-65
2021/10/13 02:06:41;;;;;;;9.38;4.15;;;;;;;10.85;94.09;102330.59;4976765;28;20384;-64
2021/10/13 02:09:08;;;;;;;9.07;3.70;;;;;;;10.84;94.23;102325.34;4975493;28;20077;-65
2021/10/13 02:11:35;;;;;;;9.07;4.35;;;;;;;10.86;94.27;102321.50;4940293;28;20127;-64
2021/10/13 02:14:10;;;;;;;11.82;4.47;;;;;;;10.91;94.13;102327.34;4973107;28;20034;-63
2021/10/13 02:16:36;;;;;;;8.23;4.10;;;;;;;10.93;94.17;102325.34;4973443;28;20288;-65
2021/10/13 02:19:04;;;;;;;7.03;4.00;;;;;;;10.89;94.12;102317.69;4974543;28;20039;-66
2021/10/13 02:21:30;;;;;;;7.07;3.95;;;;;;;10.88;94.16;102316.00;4976179;28;20030;-64
2021/10/13 02:23:58;;;;;;;8.30;4.43;;;;;;;10.95;94.24;102325.19;4969805;28;20492;-64
2021/10/13 02:26:42;;;;;;;8.98;4.03;;;;;;;10.94;94.62;102327.03;4989546;28;20038;-64
2021/10/13 02:29:12;;;;;;;8.48;4.70;;;;;;;10.93;94.15;102319.97;4955475;28;20026;-67
2021/10/13 02:31:38;;;;;;;6.68;3.90;;;;;;;10.91;93.67;102318.41;4971097;28;20030;-64
2021/10/13 02:34:04;;;;;;;10.10;4.72;;;;;;;10.88;93.93;102311.47;4973281;28;20034;-64
2021/10/13 02:36:29;;;;;;;8.63;4.75;;;;;;;10.86;93.75;102313.44;4971681;28;20042;-65
2021/10/13 02:38:55;;;;;;;10.35;4.88;;;;;;;10.88;93.72;102310.63;4975240;28;20496;-65
2021/10/13 02:41:21;;;;;;;10.32;4.75;;;;;;;10.86;93.37;102310.75;4974921;28;20040;-65
2021/10/13 02:43:46;;;;;;;11.07;5.20;;;;;;;10.85;93.24;102306.38;4974649;28;20038;-64
2021/10/13 02:46:21;;;;;;;10.45;5.40;;;;;;;10.87;92.98;102312.44;4959835;28;20022;-64
2021/10/13 02:49:15;;;;;;;13.07;5.13;;;;;;;10.83;93.04;102308.34;4973457;28;20038;-67
2021/10/13 02:52:14;;;;;;;10.80;5.28;;;;;;;10.81;92.81;102307.63;4925567;28;20055;-67
2021/10/13 02:55:00;;;;;;;10.88;5.25;;;;;;;10.67;92.83;102281.13;4967097;28;20054;-66
2021/10/13 02:57:41;;;;;;;9.77;5.57;;;;;;;10.79;92.55;102309.59;4955412;28;20567;-65
2021/10/13 03:00:08;;;;;;;12.55;5.00;;;;;;;10.79;92.80;102305.06;4970886;28;20502;-64
2021/10/13 03:02:42;;;;;;;11.00;5.15;;;;;;;10.78;92.77;102299.84;4973949;28;20340;-65
2021/10/13 03:05:08;;;;;;;7.20;4.55;;;;;;;10.79;92.62;102305.06;4974067;28;20046;-65
2021/10/13 03:07:39;;;;;;;9.77;4.10;;;;;;;10.75;93.11;102300.13;4974996;28;20034;-66
2021/10/13 03:10:06;;;;;;;17.48;4.65;;;;;;;10.74;92.98;102301.97;4989449;28;20502;-64
2021/10/13 03:12:47;;;;;;;7.18;4.53;;;;;;;10.76;93.01;102307.19;4975224;28;20164;-67
2021/10/13 03:15:13;;;;;;;6.93;3.85;;;;;;;10.72;92.83;102297.72;4970740;28;20559;-64
2021/10/13 03:17:40;;;;;;;6.90;3.75;;;;;;;10.75;93.32;102305.50;4972494;28;20038;-63
2021/10/13 03:20:06;;;;;;;10.73;5.03;;;;;;;10.74;93.22;102296.59;4972709;28;20061;-66
2021/10/13 03:22:33;;;;;;;9.88;4.47;;;;;;;10.74;93.33;102298.41;4986773;28;20125;-64
2021/10/13 03:24:59;;;;;;;10.30;5.00;;;;;;;10.77;93.07;102309.75;4972214;28;20493;-64
2021/10/13 03:27:26;;;;;;;8.13;4.35;;;;;;;10.69;93.05;102287.19;4984205;28;20515;-69
2021/10/13 03:29:52;;;;;;;8.75;3.97;;;;;;;10.74;93.37;102307.34;4971255;28;20061;-67
2021/10/13 03:32:18;;;;;;;7.28;4.30;;;;;;;10.68;93.20;102290.91;4970816;28;20372;-67
2021/10/13 03:34:44;;;;;;;5.63;3.60;;;;;;;10.74;93.11;102293.03;4970969;28;20092;-65
2021/10/13 03:37:09;;;;;;;9.02;4.13;;;;;;;10.70;93.17;102297.00;4974294;28;20559;-64
2021/10/13 03:39:35;;;;;;;7.22;4.22;;;;;;;10.65;93.47;102294.72;4975227;28;21861;-64
2021/10/13 03:42:01;;;;;;;7.35;4.53;;;;;;;10.66;93.33;102296.41;4974503;28;20081;-66
2021/10/13 03:44:27;;;;;;;6.50;3.85;;;;;;;10.70;93.71;102295.16;4972427;28;20126;-65
2021/10/13 03:46:53;;;;;;;8.07;3.78;;;;;;;10.71;93.39;102299.53;4973479;28;20122;-67
2021/10/13 03:49:18;;;;;;;7.47;3.95;;;;;;;10.74;93.57;102298.41;4975539;28;20019;-65
2021/10/13 03:51:44;;;;;;;7.05;3.70;;;;;;;10.71;93.70;102293.31;4972533;28;20038;-64
2021/10/13 03:54:10;;;;;;;6.72;4.05;;;;;;;10.73;93.63;102294.88;4958766;28;20038;-63
2021/10/13 03:56:36;;;;;;;7.15;3.78;;;;;;;10.70;93.99;102287.06;4974662;28;20065;-65
2021/10/13 03:59:01;;;;;;;7.22;4.00;;;;;;;10.71;93.92;102293.31;4954857;28;20034;-66
2021/10/13 04:01:27;;;;;;;8.90;4.72;;;;;;;10.71;94.26;102290.63;4955922;28;20373;-65
2021/10/13 04:03:53;;;;;;;6.45;3.97;;;;;;;10.67;93.98;102278.44;4968398;28;20023;-68
2021/10/13 04:06:18;;;;;;;9.07;4.38;;;;;;;10.75;93.92;102300.97;4970352;28;20050;-65
2021/10/13 04:08:44;;;;;;;7.13;3.75;;;;;;;10.74;94.12;102298.41;4975746;28;20045;-66
2021/10/13 04:11:10;;;;;;;9.27;4.40;;;;;;;10.67;94.35;102286.53;4970412;28;20031;-66
2021/10/13 04:13:36;;;;;;;9.75;4.40;;;;;;;10.71;94.28;102298.69;4973337;28;20058;-70
2021/10/13 04:16:02;;;;;;;10.55;4.25;;;;;;;10.68;94.47;102291.75;4970543;28;20030;-67
2021/10/13 04:18:28;;;;;;;7.63;4.45;;;;;;;10.70;93.93;102297.84;4953290;28;20042;-64
2021/10/13 04:20:54;;;;;;;7.15;4.25;;;;;;;10.74;94.03;102290.31;4952276;28;20129;-66
2021/10/13 04:23:19;;;;;;;7.35;3.97;;;;;;;10.72;94.15;102295.03;4961397;28;20042;-65
2021/10/13 04:25:45;;;;;;;10.35;4.47;;;;;;;10.72;94.29;102292.34;4971652;28;20073;-67
2021/10/13 04:28:11;;;;;;;6.57;4.10;;;;;;;10.70;94.51;102297.84;4975501;28;20034;-64
2021/10/13 04:30:37;;;;;;;14.50;5.13;;;;;;;10.68;94.39;102288.22;4976101;28;20045;-63
2021/10/13 04:33:04;;;;;;;8.32;4.60;;;;;;;10.72;94.37;102290.50;4973069;28;20034;-65
2021/10/13 04:35:30;;;;;;;8.35;4.70;;;;;;;10.70;94.01;102289.78;4992242;28;20085;-65
2021/10/13 04:37:56;;;;;;;9.60;5.72;;;;;;;10.71;94.20;102302.22;4977222;28;20069;-63
2021/10/13 04:40:21;;;;;;;8.15;4.45;;;;;;;10.76;94.04;102312.56;4974677;28;20073;-66
2021/10/13 04:42:47;;;;;;;8.88;4.75;;;;;;;10.73;94.03;102297.56;4970266;28;20045;-64
2021/10/13 04:45:13;;;;;;;8.48;4.30;;;;;;;10.77;94.14;102300.84;4942870;28;20037;-68
2021/10/13 04:47:40;;;;;;;6.55;3.70;;;;;;;10.76;94.16;102304.50;4975367;28;20058;-64
2021/10/13 04:50:06;;;;;;;8.13;4.22;;;;;;;10.79;94.18;102307.75;4973645;28;20529;-66
2021/10/13 04:52:32;;;;;;;14.38;4.70;;;;;;;10.77;94.25;102306.22;4976091;28;20092;-66
2021/10/13 04:54:57;;;;;;;9.63;4.20;;;;;;;10.76;94.12;102307.19;4961265;28;20038;-64
2021/10/13 04:57:24;;;;;;;7.45;4.22;;;;;;;10.78;94.31;102315.97;4974086;28;20073;-64
2021/10/13 04:59:50;;;;;;;10.05;4.55;;;;;;;10.77;94.38;102312.44;4975017;28;20039;-66
2021/10/13 05:02:19;;;;;;;7.05;4.50;;;;;;;10.79;94.36;102309.59;4977884;28;20111;-64
2021/10/13 05:04:45;;;;;;;8.98;4.38;;;;;;;10.81;94.13;102312.16;4962259;28;20396;-63
2021/10/13 05:07:11;;;;;;;5.97;4.15;;;;;;;10.78;94.34;102316.81;4941432;28;20035;-63
2021/10/13 05:09:36;;;;;;;9.15;4.93;;;;;;;10.74;94.38;102311.84;4940567;28;20027;-65
2021/10/13 05:12:02;;;;;;;9.40;4.57;;;;;;;10.70;94.24;102307.75;4964757;28;20292;-68
2021/10/13 05:14:27;;;;;;;8.07;4.28;;;;;;;10.67;94.60;102303.50;4960785;28;20034;-64
2021/10/13 05:16:53;;;;;;;9.45;4.85;;;;;;;10.71;94.57;102312.13;4943246;28;20030;-65
2021/10/13 05:19:19;;;;;;;9.60;6.03;;;;;;;10.71;94.76;102321.06;4974715;28;20038;-66
2021/10/13 05:21:44;;;;;;;12.48;5.78;;;;;;;10.68;94.47;102309.72;4974852;28;20039;-65
2021/10/13 05:24:11;;;;;;;8.43;4.55;;;;;;;10.68;94.82;102312.41;4975732;28;20046;-66
2021/10/13 05:26:41;;;;;;;10.65;4.60;;;;;;;10.65;94.81;102312.69;4969234;28;20101;-65
2021/10/13 05:29:06;;;;;;;10.38;5.78;;;;;;;10.69;94.85;102323.06;4976973;28;20030;-66
2021/10/13 05:31:32;;;;;;;7.85;4.72;;;;;;;10.68;94.95;102320.50;4975976;28;20643;-64
2021/10/13 05:33:57;;;;;;;11.32;5.40;;;;;;;10.65;94.79;102323.47;4976483;28;20638;-64
2021/10/13 05:36:23;;;;;;;9.43;4.80;;;;;;;10.64;95.12;102311.84;4974845;28;20035;-66
2021/10/13 05:38:49;;;;;;;8.75;4.90;;;;;;;10.63;94.91;102318.22;4943699;28;20042;-67
2021/10/13 05:41:14;;;;;;;9.43;4.78;;;;;;;10.64;94.92;102310.97;4974713;28;20467;-64
2021/10/13 05:43:40;;;;;;;9.45;4.68;;;;;;;10.63;95.13;102311.97;4972856;28;20082;-64
2021/10/13 05:46:05;;;;;;;9.65;5.18;;;;;;;10.60;95.19;102314.94;4990541;28;20540;-66
2021/10/13 05:48:31;;;;;;;11.90;5.75;;;;;;;10.56;95.33;102323.31;4958078;28;20086;-65
2021/10/13 05:50:59;;;;;;;9.25;4.78;;;;;;;10.51;95.36;102313.94;4974662;28;20061;-64
2021/10/13 05:53:25;;;;;;;8.15;4.93;;;;;;;10.52;95.26;102316.47;4974340;28;20557;-64
2021/10/13 05:55:51;;;;;;;12.15;5.40;;;;;;;10.53;95.39;102312.81;4934650;28;20531;-64
2021/10/13 05:58:19;;;;;;;11.13;4.63;;;;;;;10.54;95.59;102322.56;4956638;28;20035;-63
2021/10/13 06:00:45;;;;;;;8.93;4.40;;;;;;;10.55;95.48;102326.13;4957519;28;20476;-65
2021/10/13 06:03:11;;;;;;;13.02;5.18;;;;;;;10.51;95.66;102308.56;4956200;28;20036;-64
2021/10/13 06:05:37;;;;;;;10.15;5.13;;;;;;;10.46;95.90;102311.66;4971967;28;20105;-64
2021/10/13 06:08:03;;;;;;;9.75;4.53;;;;;;;10.41;95.84;102313.06;4940625;28;20031;-68
2021/10/13 06:10:29;;;;;;;9.05;4.60;;;;;;;10.33;96.20;102317.28;4939098;28;20045;-65
2021/10/13 06:12:56;;;;;;;13.05;4.88;;;;;;;10.32;96.26;102304.00;4939093;28;20066;-66
2021/10/13 06:15:24;;;;;;;9.68;4.80;;;;;;;10.35;96.41;102309.09;4944122;28;20125;-64
2021/10/13 06:17:50;;;;;;;8.85;4.85;;;;;;;10.38;96.53;102305.28;4955659;28;20496;-64
2021/10/13 06:20:16;;;;;;;8.57;4.55;;;;;;;10.41;96.37;102308.53;4956199;28;20035;-65
2021/10/13 06:22:42;;;;;;;8.13;4.30;;;;;;;10.38;96.46;102303.44;4937775;28;20054;-64
2021/10/13 06:25:10;;;;;;;9.57;4.90;;;;;;;10.30;96.53;102306.78;4940384;28;20033;-65
2021/10/13 06:27:35;;;;;;;7.57;5.03;;;;;;;10.23;96.74;102294.84;4938816;28;20451;-67
2021/10/13 06:30:01;;;;;;;8.18;4.57;;;;;;;10.20;96.94;102305.03;4940332;28;20133;-65
2021/10/13 06:32:27;;;;;;;8.30;5.20;;;;;;;10.23;97.03;102310.97;4940481;28;20046;-68
2021/10/13 06:34:52;;;;;;;9.75;4.57;;;;;;;10.25;96.89;102303.63;4956574;28;20052;-64
2021/10/13 06:37:18;;;;;;;8.02;4.57;;;;;;;10.24;97.15;102307.31;4939920;28;20034;-64
2021/10/13 06:39:44;;;;;;;9.40;4.88;;;;;;;10.20;97.33;102310.41;4940136;28;20609;-63
2021/10/13 06:42:10;;;;;;;13.63;4.72;;;;;;;10.15;97.38;102309.97;4940344;28;20026;-63
2021/10/13 06:44:35;;;;;;;10.13;4.63;;;;;;;10.12;97.84;102305.69;4955907;28;20153;-66
2021/10/13 06:47:01;;;;;;;16.20;5.22;;;;;;;10.15;97.93;102309.97;4956143;28;20067;-64
2021/10/13 06:49:27;;;;;;;9.73;4.95;;;;;;;10.19;97.82;102308.69;4947095;28;20039;-66
2021/10/13 06:51:52;;;;;;;12.20;5.50;;;;;;;10.24;97.94;102310.00;4955945;28;20395;-63
2021/10/13 06:54:18;;;;;;;12.45;5.00;;;;;;;10.27;97.71;102307.06;4939959;28;20557;-66
2021/10/13 06:56:44;;;;;;;10.18;4.93;;;;;;;10.30;97.34;102312.19;4939655;28;20485;-64
2021/10/13 06:59:10;;;;;;;8.38;4.55;;;;;;;10.30;97.40;102311.31;4955976;28;20494;-65
2021/10/13 07:01:37;;;;;;;9.07;5.18;;;;;;;10.30;97.34;102314.00;4939237;28;20035;-65
2021/10/13 07:04:02;;;;;;;9.00;5.65;;;;;;;10.30;97.40;102319.41;4955816;28;20113;-63
2021/10/13 07:06:28;;;;;;;7.18;4.63;;;;;;;10.31;97.27;102318.41;4938607;28;20101;-64
2021/10/13 07:08:54;;;;;;;10.80;5.05;;;;;;;10.39;97.21;102325.78;4964172;28;20073;-64
2021/10/13 07:11:21;;;;;;;11.02;6.43;;;;;;;10.41;96.62;102330.03;4938902;28;20031;-65
2021/10/13 07:13:47;;;;;;;12.90;5.80;;;;;;;10.44;96.90;102327.06;4939739;28;20050;-66
2021/10/13 07:16:13;;;;;;;15.00;5.35;;;;;;;10.48;96.86;102331.22;4943703;28;20495;-65
2021/10/13 07:18:39;;;;;;;14.27;5.63;;;;;;;10.47;97.33;102332.19;4969392;28;20046;-65
2021/10/13 07:21:05;;;;;;;10.77;5.30;;;;;;;10.49;96.58;102338.28;4938366;28;20122;-65
2021/10/13 07:23:31;;;;;;;10.55;5.78;;;;;;;10.49;96.60;102346.34;4960122;28;20135;-66
2021/10/13 07:25:57;;;;;;;12.80;5.53;;;;;;;10.53;96.62;102338.84;4949306;28;20085;-65
2021/10/13 07:28:25;;;;;;;9.95;5.18;;;;;;;10.55;96.67;102344.94;4938903;28;20395;-64
2021/10/13 07:30:51;;;;;;;9.95;4.65;;;;;;;10.57;96.24;102346.50;4963201;28;20049;-66
2021/10/13 07:33:16;;;;;;;16.35;5.88;;;;;;;10.63;96.22;102338.88;4938837;28;20031;-64
2021/10/13 07:35:42;;;;;;;11.98;5.28;;;;;;;10.70;96.06;102350.81;4954286;28;20443;-66
2021/10/13 07:38:12;;;;;;;14.50;5.68;;;;;;;10.75;95.95;102333.25;4938104;28;20122;-64
2021/10/13 07:40:38;;;;;;;9.50;5.22;;;;;;;10.79;95.53;102339.19;4966961;28;20396;-63
2021/10/13 07:43:04;;;;;;;13.35;5.50;;;;;;;10.84;95.63;102344.16;4938638;28;20039;-63
2021/10/13 07:45:30;;;;;;;11.13;5.57;;;;;;;10.90;95.43;102344.47;4951090;29;20035;-64
2021/10/13 07:48:01;;;;;;;14.68;5.68;;;;;;;10.97;95.22;102347.44;4953933;28;20400;-65
2021/10/13 07:50:28;;;;;;;13.77;6.00;;;;;;;11.00;94.61;102339.94;4935384;29;20039;-69
2021/10/13 07:52:54;;;;;;;10.77;5.90;;;;;;;11.07;94.61;102344.78;4952894;28;20034;-66
2021/10/13 07:55:20;;;;;;;13.32;6.10;;;;;;;11.09;94.52;102340.13;4954410;28;20125;-64
2021/10/13 07:57:46;;;;;;;16.55;6.65;;;;;;;11.14;94.17;102327.06;4954458;28;20472;-66
2021/10/13 08:00:30;;;;;;;16.27;6.18;;;;;;;11.14;93.74;102330.63;4953964;28;20050;-65
2021/10/13 08:02:56;;;;;;;14.05;6.55;;;;;;;11.22;93.50;102327.22;4969263;28;20444;-65
2021/10/13 08:05:22;;;;;;;27.02;13.20;;;;;;;11.28;93.70;102329.34;4974123;28;20415;-66
2021/10/13 08:07:48;;;;;;;20.38;11.68;;;;;;;11.36;93.32;102332.16;4949727;28;20047;-66
2021/10/13 08:10:14;;;;;;;20.77;12.57;;;;;;;11.41;93.22;102331.75;4974496;28;20035;-65
2021/10/13 08:12:41;;;;;;;24.30;12.48;;;;;;;11.44;93.04;102324.22;4941999;28;20046;-64
2021/10/13 08:15:07;;;;;;;29.92;12.10;;;;;;;11.51;92.81;102334.41;4954931;28;20031;-66
2021/10/13 08:17:33;;;;;;;25.38;10.10;;;;;;;11.57;92.54;102325.78;4942680;28;20129;-65
2021/10/13 08:20:01;;;;;;;14.45;7.88;;;;;;;11.66;92.12;102327.59;4974243;28;20137;-67
2021/10/13 08:22:26;;;;;;;12.18;7.40;;;;;;;11.70;92.10;102331.72;4946606;28;20038;-64
2021/10/13 08:24:52;;;;;;;14.65;6.57;;;;;;;11.75;91.88;102328.56;4941555;28;20093;-64
2021/10/13 08:27:18;;;;;;;15.13;6.68;;;;;;;11.80;91.14;102320.88;4940579;28;20030;-64
2021/10/13 08:29:43;;;;;;;13.32;6.22;;;;;;;11.87;90.97;102313.97;4974285;28;20555;-66
2021/10/13 08:32:09;;;;;;;10.40;5.55;;;;;;;11.91;91.05;102314.50;4940545;28;20502;-66
2021/10/13 08:34:35;;;;;;;14.10;6.97;;;;;;;11.97;90.75;102325.56;4947265;28;20471;-69
2021/10/13 08:37:01;;;;;;;15.45;7.80;;;;;;;12.01;90.31;102332.38;4942334;28;20118;-65
2021/10/13 08:39:26;;;;;;;22.15;10.55;;;;;;;12.06;90.02;102334.63;4965572;28;20045;-65
2021/10/13 08:41:52;;;;;;;21.52;12.38;;;;;;;12.11;89.67;102324.25;4958161;28;20046;-65
2021/10/13 08:44:18;;;;;;;18.05;10.18;;;;;;;12.18;89.60;102338.00;4950517;28;20031;-68
2021/10/13 08:46:44;;;;;;;17.65;9.77;;;;;;;12.25;89.06;102331.88;4940660;28;20420;-66
2021/10/13 08:49:10;;;;;;;19.55;11.60;;;;;;;12.30;88.92;102326.88;4964549;28;20030;-67
2021/10/13 08:51:37;;;;;;;22.80;16.75;;;;;;;12.43;88.14;102325.66;4939787;28;20098;-66
2021/10/13 08:54:03;;;;;;;22.40;10.50;;;;;;;12.48;87.92;102316.13;4948651;28;20538;-65
2021/10/13 08:56:29;;;;;;;33.17;12.65;;;;;;;12.65;87.47;102343.28;4950142;28;20062;-64
2021/10/13 08:58:55;;;;;;;20.75;9.93;;;;;;;12.72;87.05;102347.09;4965434;28;20074;-68
2021/10/13 09:01:21;;;;;;;22.52;10.35;;;;;;;12.75;86.75;102352.19;4956835;28;20035;-65
2021/10/13 09:03:49;;;;;;;29.42;15.88;;;;;;;12.76;86.73;102352.03;4951396;28;20046;-65
2021/10/13 09:06:20;;;;;;;20.50;8.80;;;;;;;12.80;86.56;102349.03;4949281;28;20506;-67
2021/10/13 09:09:05;;;;;;;17.58;9.52;;;;;;;12.77;86.00;102350.19;4958021;28;20467;-66
2021/10/13 09:11:42;;;;;;;18.17;8.30;;;;;;;12.70;86.08;102349.97;4954554;28;20098;-66
2021/10/13 09:14:09;;;;;;;26.90;14.68;;;;;;;12.72;86.17;102355.19;4945940;28;20496;-65
2021/10/13 09:16:49;;;;;;;20.27;11.77;;;;;;;12.74;85.84;102366.69;4970847;28;20135;-65
2021/10/13 09:19:16;;;;;;;24.17;13.57;;;;;;;12.72;85.71;102368.69;4955826;28;20039;-64
2021/10/13 09:22:11;;;;;;;22.38;12.18;;;;;;;12.71;85.60;102367.84;4964670;28;20101;-65
2021/10/13 09:24:49;;;;;;;18.77;10.32;;;;;;;12.75;85.03;102371.94;4953702;28;20134;-69
2021/10/13 09:27:24;;;;;;;18.73;8.27;;;;;;;12.76;84.88;102362.84;4940570;28;20043;-65
2021/10/13 09:29:50;;;;;;;22.25;9.95;;;;;;;12.79;84.58;102361.69;4941141;28;20134;-66
2021/10/13 09:32:22;;;;;;;17.75;8.80;;;;;;;12.75;84.08;102352.19;4938382;28;20492;-65
2021/10/13 09:34:51;;;;;;;16.98;9.05;;;;;;;12.88;83.69;102352.66;4974137;28;20034;-66
2021/10/13 09:37:18;;;;;;;18.58;8.73;;;;;;;13.04;83.07;102359.25;4960267;28;20269;-65
2021/10/13 09:40:00;;;;;;;16.30;9.80;;;;;;;13.05;82.96;102351.00;4966247;28;20451;-67
2021/10/13 09:42:26;;;;;;;15.48;8.02;;;;;;;13.05;82.79;102360.97;4941390;28;20050;-65
2021/10/13 09:44:55;;;;;;;18.10;9.55;;;;;;;13.09;82.60;102362.34;4940167;28;20039;-66
2021/10/13 09:47:32;;;;;;;16.40;8.48;;;;;;;13.09;81.80;102368.59;4941175;28;20122;-64
2021/10/13 09:49:59;;;;;;;19.73;9.73;;;;;;;13.05;81.72;102360.97;4939852;28;20067;-65
2021/10/13 09:52:27;;;;;;;17.27;8.75;;;;;;;13.01;81.64;102363.09;4955572;28;20476;-66
2021/10/13 09:55:02;;;;;;;17.77;8.90;;;;;;;12.98;81.55;102353.47;4955762;28;20566;-64
2021/10/13 09:57:30;;;;;;;14.98;7.78;;;;;;;12.97;81.32;102350.94;4940939;28;20539;-66
2021/10/13 10:00:27;;;;;;;15.50;7.63;;;;;;;12.91;81.86;102357.78;4940804;28;20462;-65
2021/10/13 10:02:57;;;;;;;16.40;7.20;;;;;;;12.87;81.25;102363.63;4970431;28;20053;-64
2021/10/13 10:05:29;;;;;;;15.45;8.27;;;;;;;12.88;81.25;102368.88;4953013;28;20488;-64
2021/10/13 10:08:03;;;;;;;18.98;8.02;;;;;;;12.90;81.02;102371.44;4961801;28;20476;-64
2021/10/13 10:10:29;;;;;;;23.23;9.30;;;;;;;12.96;81.01;102371.66;4953824;28;20031;-63
2021/10/13 10:12:58;;;;;;;17.08;9.05;;;;;;;13.02;80.51;102378.31;4940331;28;20121;-65
2021/10/13 10:15:29;;;;;;;19.67;8.38;;;;;;;13.01;80.53;102373.06;4962224;28;20034;-65
2021/10/13 10:17:55;;;;;;;20.35;9.65;;;;;;;13.04;80.58;102387.09;4973257;28;20035;-68
2021/10/13 10:20:36;;;;;;;18.95;9.68;;;;;;;13.03;80.89;102390.81;4950712;28;20488;-63
2021/10/13 10:23:31;;;;;;;19.80;9.15;;;;;;;13.05;80.86;102391.50;4956384;28;20034;-64
2021/10/13 10:26:18;;;;;;;21.83;9.32;;;;;;;13.08;80.99;102391.19;4935851;28;20027;-68
2021/10/13 10:28:49;;;;;;;16.48;9.00;;;;;;;13.13;80.85;102396.16;4955558;28;20514;-64
2021/10/13 10:31:28;;;;;;;14.45;7.97;;;;;;;13.15;80.87;102394.13;4955488;28;20031;-69
2021/10/13 10:34:03;;;;;;;17.10;8.23;;;;;;;13.19;80.44;102388.28;4957163;28;20039;-65
2021/10/13 10:36:54;;;;;;;21.17;7.93;;;;;;;13.27;80.20;102389.41;4954518;28;20054;-65
2021/10/13 10:39:21;;;;;;;17.05;7.72;;;;;;;13.24;80.00;102385.13;4942960;28;20408;-66
2021/10/13 10:41:49;;;;;;;16.15;8.27;;;;;;;13.26;79.93;102383.16;4969845;28;20094;-64
2021/10/13 10:44:45;;;;;;;15.98;7.68;;;;;;;13.24;79.67;102387.81;4961143;28;20022;-63
2021/10/13 10:47:12;;;;;;;17.70;8.15;;;;;;;13.28;79.83;102391.09;4947506;28;20062;-64
2021/10/13 10:49:51;;;;;;;17.42;8.52;;;;;;;13.30;79.17;102380.97;4940257;28;20089;-64
2021/10/13 10:52:24;;;;;;;15.43;8.10;;;;;;;13.36;79.63;102383.94;4955200;28;20121;-63
2021/10/13 10:54:54;;;;;;;20.02;8.15;;;;;;;13.45;79.91;102387.56;4944489;28;20034;-65
2021/10/13 10:57:39;;;;;;;15.57;8.10;;;;;;;13.56;78.94;102383.75;4972450;28;20053;-66
2021/10/13 11:00:29;;;;;;;18.90;10.23;;;;;;;13.55;78.92;102382.91;4970400;28;20048;-65
2021/10/13 11:03:18;;;;;;;21.70;9.48;;;;;;;13.59;78.76;102389.69;4968714;28;20037;-64
2021/10/13 11:05:45;;;;;;;17.58;8.70;;;;;;;13.59;78.68;102384.28;4953651;28;20038;-64
2021/10/13 11:08:12;;;;;;;19.15;9.57;;;;;;;13.66;78.61;102372.88;4962589;28;20113;-68
2021/10/13 11:10:44;;;;;;;17.88;9.00;;;;;;;13.66;78.16;102372.88;4970838;28;20031;-66
2021/10/13 11:13:10;;;;;;;17.98;8.68;;;;;;;13.61;78.10;102362.53;4948215;28;20046;-66
2021/10/13 11:15:41;;;;;;;16.88;8.10;;;;;;;13.64;77.97;102365.75;4955107;28;20042;-64
2021/10/13 11:18:17;;;;;;;21.35;10.27;;;;;;;13.78;77.59;102369.72;4955284;28;20054;-65
2021/10/13 11:20:46;;;;;;;20.20;10.30;;;;;;;13.85;77.72;102369.97;4937746;28;20073;-64
2021/10/13 11:23:12;;;;;;;19.63;9.68;;;;;;;13.90;77.03;102366.78;4966781;28;20040;-64
2021/10/13 11:25:40;;;;;;;18.13;11.57;;;;;;;13.89;76.67;102356.97;4958952;28;20030;-63